sensor_id;sensor_type;location;lat;lon;timestamp;P1;durP1;ratioP1;P2;durP2;ratioP2
60472;SDS011;46318;52.716;6.444;2023-04-28T00:02:05;15.35;;;11.98;;
60472;SDS011;46318;52.716;6.444;2023-04-28T00:04:31;13.73;;;11.75;;
60472;SDS011;46318;52.716;6.444;2023-04-28T00:06:57;18.40;;;12.23;;
60472;SDS011;46318;52.716;6.444;2023-04-28T00:09:23;15.60;;;11.95;;
60472;SDS011;46318;52.716;6.444;2023-04-28T00:11:49;15.52;;;11.98;;
60472;SDS011;46318;52.716;6.444;2023-04-28T00:14:15;16.70;;;12.30;;
60472;SDS011;46318;52.716;6.444;2023-04-28T00:16:41;15.52;;;11.30;;
60472;SDS011;46318;52.716;6.444;2023-04-28T00:19:06;17.98;;;11.98;;
60472;SDS011;46318;52.716;6.444;2023-04-28T00:21:32;15.40;;;12.05;;
60472;SDS011;46318;52.716;6.444;2023-04-28T00:23:58;14.32;;;11.90;;
60472;SDS011;46318;52.716;6.444;2023-04-28T00:26:24;15.27;;;11.90;;
60472;SDS011;46318;52.716;6.444;2023-04-28T00:28:50;14.88;;;12.13;;
60472;SDS011;46318;52.716;6.444;2023-04-28T00:31:16;18.15;;;13.32;;
60472;SDS011;46318;52.716;6.444;2023-04-28T00:33:42;20.50;;;13.40;;
60472;SDS011;46318;52.716;6.444;2023-04-28T00:36:08;15.98;;;12.30;;
60472;SDS011;46318;52.716;6.444;2023-04-28T00:38:35;15.80;;;12.27;;
60472;SDS011;46318;52.716;6.444;2023-04-28T00:41:02;17.60;;;12.82;;
60472;SDS011;46318;52.716;6.444;2023-04-28T00:43:28;17.63;;;12.63;;
60472;SDS011;46318;52.716;6.444;2023-04-28T00:45:54;17.05;;;11.95;;
60472;SDS011;46318;52.716;6.444;2023-04-28T00:48:20;16.70;;;12.50;;
60472;SDS011;46318;52.716;6.444;2023-04-28T00:50:48;17.95;;;12.63;;
60472;SDS011;46318;52.716;6.444;2023-04-28T00:53:15;15.95;;;13.23;;
60472;SDS011;46318;52.716;6.444;2023-04-28T00:55:41;16.00;;;12.38;;
60472;SDS011;46318;52.716;6.444;2023-04-28T00:58:07;16.15;;;12.70;;
60472;SDS011;46318;52.716;6.444;2023-04-28T01:00:34;16.70;;;12.75;;
60472;SDS011;46318;52.716;6.444;2023-04-28T01:02:59;17.08;;;11.32;;
60472;SDS011;46318;52.716;6.444;2023-04-28T01:05:26;15.65;;;11.95;;
60472;SDS011;46318;52.716;6.444;2023-04-28T01:07:53;15.65;;;11.73;;
60472;SDS011;46318;52.716;6.444;2023-04-28T01:10:19;16.42;;;12.02;;
60472;SDS011;46318;52.716;6.444;2023-04-28T01:12:45;14.02;;;12.15;;
60472;SDS011;46318;52.716;6.444;2023-04-28T01:15:15;17.98;;;12.32;;
60472;SDS011;46318;52.716;6.444;2023-04-28T01:20:10;14.82;;;11.60;;
60472;SDS011;46318;52.716;6.444;2023-04-28T01:22:36;15.63;;;11.93;;
60472;SDS011;46318;52.716;6.444;2023-04-28T01:25:02;15.07;;;12.57;;
60472;SDS011;46318;52.716;6.444;2023-04-28T01:27:28;15.20;;;11.73;;
60472;SDS011;46318;52.716;6.444;2023-04-28T01:29:54;14.85;;;12.07;;
60472;SDS011;46318;52.716;6.444;2023-04-28T01:32:21;14.18;;;12.15;;
60472;SDS011;46318;52.716;6.444;2023-04-28T01:34:47;16.63;;;12.10;;
60472;SDS011;46318;52.716;6.444;2023-04-28T01:37:13;14.85;;;11.63;;
60472;SDS011;46318;52.716;6.444;2023-04-28T01:39:38;17.33;;;11.77;;
60472;SDS011;46318;52.716;6.444;2023-04-28T01:42:04;15.02;;;10.88;;
60472;SDS011;46318;52.716;6.444;2023-04-28T01:44:30;14.60;;;11.25;;
60472;SDS011;46318;52.716;6.444;2023-04-28T01:46:56;17.10;;;11.90;;
60472;SDS011;46318;52.716;6.444;2023-04-28T01:49:22;14.80;;;11.02;;
60472;SDS011;46318;52.716;6.444;2023-04-28T01:51:48;15.70;;;11.82;;
60472;SDS011;46318;52.716;6.444;2023-04-28T01:54:14;13.63;;;11.30;;
60472;SDS011;46318;52.716;6.444;2023-04-28T01:56:39;15.05;;;11.35;;
60472;SDS011;46318;52.716;6.444;2023-04-28T01:59:05;16.40;;;11.20;;
60472;SDS011;46318;52.716;6.444;2023-04-28T02:01:31;14.15;;;11.27;;
60472;SDS011;46318;52.716;6.444;2023-04-28T02:03:57;13.90;;;11.05;;
60472;SDS011;46318;52.716;6.444;2023-04-28T02:06:23;14.52;;;11.23;;
60472;SDS011;46318;52.716;6.444;2023-04-28T02:08:49;14.60;;;11.43;;
60472;SDS011;46318;52.716;6.444;2023-04-28T02:11:14;12.93;;;11.52;;
60472;SDS011;46318;52.716;6.444;2023-04-28T02:13:40;13.43;;;11.02;;
60472;SDS011;46318;52.716;6.444;2023-04-28T02:16:06;14.80;;;11.70;;
60472;SDS011;46318;52.716;6.444;2023-04-28T02:18:32;20.15;;;11.27;;
60472;SDS011;46318;52.716;6.444;2023-04-28T02:21:09;13.93;;;11.02;;
60472;SDS011;46318;52.716;6.444;2023-04-28T02:23:36;13.27;;;11.07;;
60472;SDS011;46318;52.716;6.444;2023-04-28T02:26:03;13.85;;;11.60;;
60472;SDS011;46318;52.716;6.444;2023-04-28T02:28:29;14.75;;;10.93;;
60472;SDS011;46318;52.716;6.444;2023-04-28T02:31:05;16.08;;;11.00;;
60472;SDS011;46318;52.716;6.444;2023-04-28T02:33:32;13.55;;;11.02;;
60472;SDS011;46318;52.716;6.444;2023-04-28T02:35:59;14.43;;;11.35;;
60472;SDS011;46318;52.716;6.444;2023-04-28T02:38:29;15.07;;;11.00;;
60472;SDS011;46318;52.716;6.444;2023-04-28T02:40:58;13.77;;;10.77;;
60472;SDS011;46318;52.716;6.444;2023-04-28T02:43:26;14.63;;;11.68;;
60472;SDS011;46318;52.716;6.444;2023-04-28T02:45:52;15.57;;;11.25;;
60472;SDS011;46318;52.716;6.444;2023-04-28T02:48:19;14.35;;;11.25;;
60472;SDS011;46318;52.716;6.444;2023-04-28T02:50:45;13.05;;;11.07;;
60472;SDS011;46318;52.716;6.444;2023-04-28T02:53:11;13.55;;;11.60;;
60472;SDS011;46318;52.716;6.444;2023-04-28T02:55:37;15.63;;;11.88;;
60472;SDS011;46318;52.716;6.444;2023-04-28T02:58:03;15.85;;;11.52;;
60472;SDS011;46318;52.716;6.444;2023-04-28T03:00:29;17.70;;;12.73;;
60472;SDS011;46318;52.716;6.444;2023-04-28T03:02:55;15.55;;;11.23;;
60472;SDS011;46318;52.716;6.444;2023-04-28T03:05:20;15.57;;;11.77;;
60472;SDS011;46318;52.716;6.444;2023-04-28T03:07:46;15.20;;;11.60;;
60472;SDS011;46318;52.716;6.444;2023-04-28T03:10:12;15.55;;;11.63;;
60472;SDS011;46318;52.716;6.444;2023-04-28T03:12:38;14.43;;;11.13;;
60472;SDS011;46318;52.716;6.444;2023-04-28T03:15:04;17.13;;;12.48;;
60472;SDS011;46318;52.716;6.444;2023-04-28T03:17:33;15.15;;;11.07;;
60472;SDS011;46318;52.716;6.444;2023-04-28T03:20:03;15.73;;;11.45;;
60472;SDS011;46318;52.716;6.444;2023-04-28T03:22:29;18.10;;;13.10;;
60472;SDS011;46318;52.716;6.444;2023-04-28T03:24:55;14.02;;;12.40;;
60472;SDS011;46318;52.716;6.444;2023-04-28T03:27:21;13.77;;;11.85;;
60472;SDS011;46318;52.716;6.444;2023-04-28T03:29:47;16.65;;;12.32;;
60472;SDS011;46318;52.716;6.444;2023-04-28T03:32:13;13.68;;;11.50;;
60472;SDS011;46318;52.716;6.444;2023-04-28T03:34:39;15.43;;;11.57;;
60472;SDS011;46318;52.716;6.444;2023-04-28T03:37:05;16.40;;;12.23;;
60472;SDS011;46318;52.716;6.444;2023-04-28T03:39:31;16.65;;;12.20;;
60472;SDS011;46318;52.716;6.444;2023-04-28T03:41:57;15.98;;;12.02;;
60472;SDS011;46318;52.716;6.444;2023-04-28T03:44:23;16.85;;;12.80;;
60472;SDS011;46318;52.716;6.444;2023-04-28T03:46:49;14.60;;;11.68;;
60472;SDS011;46318;52.716;6.444;2023-04-28T03:49:15;22.90;;;12.55;;
60472;SDS011;46318;52.716;6.444;2023-04-28T03:51:41;15.05;;;11.82;;
60472;SDS011;46318;52.716;6.444;2023-04-28T03:54:06;16.38;;;12.75;;
60472;SDS011;46318;52.716;6.444;2023-04-28T03:56:32;15.30;;;12.27;;
60472;SDS011;46318;52.716;6.444;2023-04-28T03:58:58;16.60;;;12.27;;
60472;SDS011;46318;52.716;6.444;2023-04-28T04:01:24;16.63;;;12.38;;
60472;SDS011;46318;52.716;6.444;2023-04-28T04:03:50;14.32;;;12.55;;
60472;SDS011;46318;52.716;6.444;2023-04-28T04:06:17;14.85;;;12.00;;
60472;SDS011;46318;52.716;6.444;2023-04-28T04:08:43;15.43;;;12.50;;
60472;SDS011;46318;52.716;6.444;2023-04-28T04:11:09;14.40;;;12.13;;
60472;SDS011;46318;52.716;6.444;2023-04-28T04:13:35;16.17;;;12.32;;
60472;SDS011;46318;52.716;6.444;2023-04-28T04:16:01;16.17;;;12.52;;
60472;SDS011;46318;52.716;6.444;2023-04-28T04:18:27;17.13;;;12.07;;
60472;SDS011;46318;52.716;6.444;2023-04-28T04:20:52;15.50;;;12.40;;
60472;SDS011;46318;52.716;6.444;2023-04-28T04:23:20;16.70;;;12.45;;
60472;SDS011;46318;52.716;6.444;2023-04-28T04:25:46;16.55;;;12.48;;
60472;SDS011;46318;52.716;6.444;2023-04-28T04:28:12;21.25;;;12.40;;
60472;SDS011;46318;52.716;6.444;2023-04-28T04:30:38;17.60;;;12.82;;
60472;SDS011;46318;52.716;6.444;2023-04-28T04:33:04;18.67;;;12.80;;
60472;SDS011;46318;52.716;6.444;2023-04-28T04:35:31;17.58;;;12.15;;
60472;SDS011;46318;52.716;6.444;2023-04-28T04:37:57;17.38;;;12.90;;
60472;SDS011;46318;52.716;6.444;2023-04-28T04:40:23;15.75;;;12.65;;
60472;SDS011;46318;52.716;6.444;2023-04-28T04:42:49;15.20;;;11.98;;
60472;SDS011;46318;52.716;6.444;2023-04-28T04:45:15;20.42;;;12.80;;
60472;SDS011;46318;52.716;6.444;2023-04-28T04:47:41;20.60;;;13.13;;
60472;SDS011;46318;52.716;6.444;2023-04-28T04:50:08;16.30;;;12.57;;
60472;SDS011;46318;52.716;6.444;2023-04-28T04:52:35;17.60;;;12.52;;
60472;SDS011;46318;52.716;6.444;2023-04-28T04:55:01;18.88;;;13.65;;
60472;SDS011;46318;52.716;6.444;2023-04-28T04:57:28;17.67;;;12.35;;
60472;SDS011;46318;52.716;6.444;2023-04-28T04:59:53;16.65;;;11.80;;
60472;SDS011;46318;52.716;6.444;2023-04-28T05:02:19;16.25;;;12.38;;
60472;SDS011;46318;52.716;6.444;2023-04-28T05:04:45;16.67;;;12.00;;
60472;SDS011;46318;52.716;6.444;2023-04-28T05:07:11;15.73;;;12.32;;
60472;SDS011;46318;52.716;6.444;2023-04-28T05:09:37;18.73;;;12.23;;
60472;SDS011;46318;52.716;6.444;2023-04-28T05:12:03;17.15;;;12.20;;
60472;SDS011;46318;52.716;6.444;2023-04-28T05:14:29;16.40;;;12.30;;
60472;SDS011;46318;52.716;6.444;2023-04-28T05:16:55;15.88;;;11.55;;
60472;SDS011;46318;52.716;6.444;2023-04-28T05:19:22;14.65;;;11.35;;
60472;SDS011;46318;52.716;6.444;2023-04-28T05:21:48;14.50;;;11.45;;
60472;SDS011;46318;52.716;6.444;2023-04-28T05:24:16;15.75;;;11.95;;
60472;SDS011;46318;52.716;6.444;2023-04-28T05:26:42;15.90;;;11.45;;
60472;SDS011;46318;52.716;6.444;2023-04-28T05:29:08;16.40;;;12.27;;
60472;SDS011;46318;52.716;6.444;2023-04-28T05:31:34;15.50;;;12.10;;
60472;SDS011;46318;52.716;6.444;2023-04-28T05:34:00;17.42;;;12.02;;
60472;SDS011;46318;52.716;6.444;2023-04-28T05:36:26;15.75;;;11.95;;
60472;SDS011;46318;52.716;6.444;2023-04-28T05:38:52;18.40;;;12.27;;
60472;SDS011;46318;52.716;6.444;2023-04-28T05:41:17;16.20;;;11.95;;
60472;SDS011;46318;52.716;6.444;2023-04-28T05:43:43;16.73;;;11.98;;
60472;SDS011;46318;52.716;6.444;2023-04-28T05:46:10;16.70;;;11.68;;
60472;SDS011;46318;52.716;6.444;2023-04-28T05:48:36;16.40;;;11.70;;
60472;SDS011;46318;52.716;6.444;2023-04-28T05:51:02;14.90;;;11.77;;
60472;SDS011;46318;52.716;6.444;2023-04-28T05:53:28;17.55;;;11.40;;
60472;SDS011;46318;52.716;6.444;2023-04-28T05:55:53;13.93;;;11.50;;
60472;SDS011;46318;52.716;6.444;2023-04-28T05:58:19;14.18;;;11.77;;
60472;SDS011;46318;52.716;6.444;2023-04-28T06:00:46;16.27;;;12.45;;
60472;SDS011;46318;52.716;6.444;2023-04-28T06:03:11;15.20;;;11.98;;
60472;SDS011;46318;52.716;6.444;2023-04-28T06:05:39;13.43;;;10.90;;
60472;SDS011;46318;52.716;6.444;2023-04-28T06:08:05;15.48;;;11.75;;
60472;SDS011;46318;52.716;6.444;2023-04-28T06:10:31;17.33;;;11.38;;
60472;SDS011;46318;52.716;6.444;2023-04-28T06:12:57;17.05;;;12.05;;
60472;SDS011;46318;52.716;6.444;2023-04-28T06:15:23;17.50;;;11.82;;
60472;SDS011;46318;52.716;6.444;2023-04-28T06:17:49;14.00;;;11.90;;
60472;SDS011;46318;52.716;6.444;2023-04-28T06:20:15;16.00;;;11.45;;
60472;SDS011;46318;52.716;6.444;2023-04-28T06:22:41;18.08;;;12.55;;
60472;SDS011;46318;52.716;6.444;2023-04-28T06:25:07;16.75;;;12.38;;
60472;SDS011;46318;52.716;6.444;2023-04-28T06:27:33;13.23;;;10.40;;
60472;SDS011;46318;52.716;6.444;2023-04-28T06:29:59;17.08;;;12.43;;
60472;SDS011;46318;52.716;6.444;2023-04-28T06:32:25;14.85;;;11.63;;
60472;SDS011;46318;52.716;6.444;2023-04-28T06:34:51;13.95;;;11.18;;
60472;SDS011;46318;52.716;6.444;2023-04-28T06:37:16;14.57;;;11.07;;
60472;SDS011;46318;52.716;6.444;2023-04-28T06:39:43;14.20;;;10.63;;
60472;SDS011;46318;52.716;6.444;2023-04-28T06:42:08;13.73;;;10.65;;
60472;SDS011;46318;52.716;6.444;2023-04-28T06:44:34;12.98;;;10.60;;
60472;SDS011;46318;52.716;6.444;2023-04-28T06:47:00;13.63;;;10.75;;
60472;SDS011;46318;52.716;6.444;2023-04-28T06:49:26;13.93;;;11.15;;
60472;SDS011;46318;52.716;6.444;2023-04-28T06:51:52;13.52;;;10.73;;
60472;SDS011;46318;52.716;6.444;2023-04-28T06:54:18;14.05;;;11.05;;
60472;SDS011;46318;52.716;6.444;2023-04-28T06:56:44;12.85;;;10.70;;
60472;SDS011;46318;52.716;6.444;2023-04-28T06:59:10;12.60;;;10.23;;
60472;SDS011;46318;52.716;6.444;2023-04-28T07:01:36;13.60;;;9.80;;
60472;SDS011;46318;52.716;6.444;2023-04-28T07:04:02;16.00;;;10.57;;
60472;SDS011;46318;52.716;6.444;2023-04-28T07:06:28;13.32;;;10.38;;
60472;SDS011;46318;52.716;6.444;2023-04-28T07:08:55;12.77;;;10.00;;
60472;SDS011;46318;52.716;6.444;2023-04-28T07:11:22;11.63;;;9.82;;
60472;SDS011;46318;52.716;6.444;2023-04-28T07:13:48;11.45;;;9.73;;
60472;SDS011;46318;52.716;6.444;2023-04-28T07:16:16;13.90;;;10.52;;
60472;SDS011;46318;52.716;6.444;2023-04-28T07:18:43;11.95;;;9.90;;
60472;SDS011;46318;52.716;6.444;2023-04-28T07:21:09;16.50;;;10.25;;
60472;SDS011;46318;52.716;6.444;2023-04-28T07:23:35;12.90;;;10.25;;
60472;SDS011;46318;52.716;6.444;2023-04-28T07:26:02;13.30;;;10.35;;
60472;SDS011;46318;52.716;6.444;2023-04-28T07:28:29;12.82;;;10.90;;
60472;SDS011;46318;52.716;6.444;2023-04-28T07:30:54;12.13;;;9.88;;
60472;SDS011;46318;52.716;6.444;2023-04-28T07:33:21;13.43;;;10.23;;
60472;SDS011;46318;52.716;6.444;2023-04-28T07:35:47;12.30;;;10.27;;
60472;SDS011;46318;52.716;6.444;2023-04-28T07:38:13;11.75;;;10.30;;
60472;SDS011;46318;52.716;6.444;2023-04-28T07:40:41;12.50;;;10.18;;
60472;SDS011;46318;52.716;6.444;2023-04-28T07:43:08;13.80;;;10.02;;
60472;SDS011;46318;52.716;6.444;2023-04-28T07:45:36;16.92;;;10.50;;
60472;SDS011;46318;52.716;6.444;2023-04-28T07:48:09;13.48;;;10.45;;
60472;SDS011;46318;52.716;6.444;2023-04-28T07:50:35;12.13;;;10.30;;
60472;SDS011;46318;52.716;6.444;2023-04-28T07:53:01;13.15;;;10.32;;
60472;SDS011;46318;52.716;6.444;2023-04-28T07:55:27;13.13;;;10.23;;
60472;SDS011;46318;52.716;6.444;2023-04-28T07:57:53;13.90;;;11.10;;
60472;SDS011;46318;52.716;6.444;2023-04-28T08:00:19;14.60;;;10.40;;
60472;SDS011;46318;52.716;6.444;2023-04-28T08:02:45;13.90;;;10.75;;
60472;SDS011;46318;52.716;6.444;2023-04-28T08:05:11;13.90;;;10.90;;
60472;SDS011;46318;52.716;6.444;2023-04-28T08:07:38;11.50;;;10.15;;
60472;SDS011;46318;52.716;6.444;2023-04-28T08:10:03;11.90;;;10.45;;
60472;SDS011;46318;52.716;6.444;2023-04-28T08:12:30;12.80;;;11.00;;
60472;SDS011;46318;52.716;6.444;2023-04-28T08:14:56;14.68;;;10.90;;
60472;SDS011;46318;52.716;6.444;2023-04-28T08:17:22;13.63;;;10.40;;
60472;SDS011;46318;52.716;6.444;2023-04-28T08:19:48;14.95;;;10.90;;
60472;SDS011;46318;52.716;6.444;2023-04-28T08:22:14;13.88;;;11.23;;
60472;SDS011;46318;52.716;6.444;2023-04-28T08:24:40;14.18;;;11.15;;
60472;SDS011;46318;52.716;6.444;2023-04-28T08:27:06;15.70;;;11.27;;
60472;SDS011;46318;52.716;6.444;2023-04-28T08:29:32;16.88;;;11.40;;
60472;SDS011;46318;52.716;6.444;2023-04-28T08:31:58;13.32;;;10.93;;
60472;SDS011;46318;52.716;6.444;2023-04-28T08:34:25;14.63;;;11.00;;
60472;SDS011;46318;52.716;6.444;2023-04-28T08:36:52;13.90;;;10.75;;
60472;SDS011;46318;52.716;6.444;2023-04-28T08:39:18;13.23;;;11.20;;
60472;SDS011;46318;52.716;6.444;2023-04-28T08:41:47;14.07;;;11.98;;
60472;SDS011;46318;52.716;6.444;2023-04-28T08:44:13;14.38;;;11.57;;
60472;SDS011;46318;52.716;6.444;2023-04-28T08:46:39;14.52;;;10.82;;
60472;SDS011;46318;52.716;6.444;2023-04-28T08:49:09;15.82;;;11.02;;
60472;SDS011;46318;52.716;6.444;2023-04-28T08:51:45;12.68;;;11.38;;
60472;SDS011;46318;52.716;6.444;2023-04-28T08:54:26;14.70;;;11.68;;
60472;SDS011;46318;52.716;6.444;2023-04-28T08:56:55;13.45;;;12.00;;
60472;SDS011;46318;52.716;6.444;2023-04-28T08:59:22;13.50;;;11.27;;
60472;SDS011;46318;52.716;6.444;2023-04-28T09:01:48;16.60;;;11.50;;
60472;SDS011;46318;52.716;6.444;2023-04-28T09:04:18;14.07;;;10.85;;
60472;SDS011;46318;52.716;6.444;2023-04-28T09:06:44;14.40;;;11.52;;
60472;SDS011;46318;52.716;6.444;2023-04-28T09:09:44;15.23;;;11.55;;
60472;SDS011;46318;52.716;6.444;2023-04-28T09:12:03;12.43;;;11.23;;
60472;SDS011;46318;52.716;6.444;2023-04-28T09:14:33;15.00;;;11.50;;
60472;SDS011;46318;52.716;6.444;2023-04-28T09:17:00;13.65;;;11.23;;
60472;SDS011;46318;52.716;6.444;2023-04-28T09:19:34;12.68;;;11.40;;
60472;SDS011;46318;52.716;6.444;2023-04-28T09:22:01;14.30;;;12.10;;
60472;SDS011;46318;52.716;6.444;2023-04-28T09:27:05;16.38;;;12.90;;
60472;SDS011;46318;52.716;6.444;2023-04-28T09:29:35;13.60;;;11.25;;
60472;SDS011;46318;52.716;6.444;2023-04-28T09:32:18;12.93;;;11.38;;
60472;SDS011;46318;52.716;6.444;2023-04-28T09:34:46;12.55;;;11.23;;
60472;SDS011;46318;52.716;6.444;2023-04-28T09:37:27;13.57;;;11.48;;
60472;SDS011;46318;52.716;6.444;2023-04-28T09:39:56;15.50;;;11.45;;
60472;SDS011;46318;52.716;6.444;2023-04-28T09:45:01;13.23;;;10.90;;
60472;SDS011;46318;52.716;6.444;2023-04-28T09:47:32;13.30;;;11.90;;
60472;SDS011;46318;52.716;6.444;2023-04-28T09:50:02;14.90;;;11.77;;
60472;SDS011;46318;52.716;6.444;2023-04-28T09:52:32;16.15;;;11.85;;
60472;SDS011;46318;52.716;6.444;2023-04-28T09:55:02;13.52;;;10.95;;
60472;SDS011;46318;52.716;6.444;2023-04-28T09:57:30;12.40;;;11.20;;
60472;SDS011;46318;52.716;6.444;2023-04-28T09:59:58;12.70;;;11.50;;
60472;SDS011;46318;52.716;6.444;2023-04-28T10:02:26;15.30;;;12.23;;
60472;SDS011;46318;52.716;6.444;2023-04-28T10:04:52;15.70;;;11.23;;
60472;SDS011;46318;52.716;6.444;2023-04-28T10:07:18;12.40;;;11.10;;
60472;SDS011;46318;52.716;6.444;2023-04-28T10:09:49;12.48;;;11.27;;
60472;SDS011;46318;52.716;6.444;2023-04-28T10:12:19;16.55;;;11.63;;
60472;SDS011;46318;52.716;6.444;2023-04-28T10:14:46;12.57;;;11.00;;
60472;SDS011;46318;52.716;6.444;2023-04-28T10:17:15;13.18;;;11.45;;
60472;SDS011;46318;52.716;6.444;2023-04-28T10:19:45;12.82;;;11.45;;
60472;SDS011;46318;52.716;6.444;2023-04-28T10:27:38;12.88;;;10.43;;
60472;SDS011;46318;52.716;6.444;2023-04-28T10:32:36;12.23;;;11.02;;
60472;SDS011;46318;52.716;6.444;2023-04-28T10:43:09;13.00;;;11.70;;
60472;SDS011;46318;52.716;6.444;2023-04-28T10:56:09;11.32;;;10.07;;
60472;SDS011;46318;52.716;6.444;2023-04-28T10:58:47;10.57;;;9.52;;
60472;SDS011;46318;52.716;6.444;2023-04-28T11:06:20;11.52;;;9.88;;
60472;SDS011;46318;52.716;6.444;2023-04-28T11:08:51;9.55;;;8.55;;
60472;SDS011;46318;52.716;6.444;2023-04-28T11:11:20;11.98;;;9.65;;
60472;SDS011;46318;52.716;6.444;2023-04-28T11:13:54;9.77;;;8.40;;
60472;SDS011;46318;52.716;6.444;2023-04-28T11:16:54;9.30;;;8.38;;
60472;SDS011;46318;52.716;6.444;2023-04-28T11:19:29;9.98;;;9.00;;
60472;SDS011;46318;52.716;6.444;2023-04-28T11:22:04;10.38;;;8.80;;
60472;SDS011;46318;52.716;6.444;2023-04-28T11:24:37;9.52;;;8.55;;
60472;SDS011;46318;52.716;6.444;2023-04-28T11:27:03;11.82;;;9.52;;
60472;SDS011;46318;52.716;6.444;2023-04-28T11:29:33;13.68;;;10.13;;
60472;SDS011;46318;52.716;6.444;2023-04-28T11:32:02;13.00;;;10.38;;
60472;SDS011;46318;52.716;6.444;2023-04-28T11:34:33;15.18;;;11.35;;
60472;SDS011;46318;52.716;6.444;2023-04-28T11:36:59;14.25;;;12.18;;
60472;SDS011;46318;52.716;6.444;2023-04-28T11:39:30;13.85;;;12.43;;
60472;SDS011;46318;52.716;6.444;2023-04-28T11:44:27;16.38;;;13.35;;
60472;SDS011;46318;52.716;6.444;2023-04-28T11:46:58;17.10;;;14.80;;
60472;SDS011;46318;52.716;6.444;2023-04-28T11:52:04;18.95;;;16.95;;
60472;SDS011;46318;52.716;6.444;2023-04-28T11:54:31;20.08;;;18.00;;
60472;SDS011;46318;52.716;6.444;2023-04-28T11:56:58;22.63;;;20.10;;
60472;SDS011;46318;52.716;6.444;2023-04-28T11:59:34;23.95;;;20.58;;
60472;SDS011;46318;52.716;6.444;2023-04-28T12:02:00;23.90;;;21.27;;
60472;SDS011;46318;52.716;6.444;2023-04-28T12:04:32;23.73;;;21.23;;
60472;SDS011;46318;52.716;6.444;2023-04-28T12:07:10;26.98;;;23.88;;
60472;SDS011;46318;52.716;6.444;2023-04-28T12:09:45;27.60;;;23.00;;
60472;SDS011;46318;52.716;6.444;2023-04-28T12:12:14;28.40;;;25.35;;
60472;SDS011;46318;52.716;6.444;2023-04-28T12:17:27;27.00;;;23.83;;
60472;SDS011;46318;52.716;6.444;2023-04-28T12:19:55;27.50;;;24.60;;
60472;SDS011;46318;52.716;6.444;2023-04-28T12:22:22;27.90;;;25.00;;
60472;SDS011;46318;52.716;6.444;2023-04-28T12:25:05;28.10;;;25.20;;
60472;SDS011;46318;52.716;6.444;2023-04-28T12:27:33;28.83;;;25.70;;
60472;SDS011;46318;52.716;6.444;2023-04-28T12:30:03;28.40;;;25.50;;
60472;SDS011;46318;52.716;6.444;2023-04-28T12:32:49;28.15;;;25.33;;
60472;SDS011;46318;52.716;6.444;2023-04-28T12:35:15;29.40;;;26.35;;
60472;SDS011;46318;52.716;6.444;2023-04-28T12:37:42;30.10;;;27.30;;
60472;SDS011;46318;52.716;6.444;2023-04-28T12:40:08;29.77;;;26.65;;
60472;SDS011;46318;52.716;6.444;2023-04-28T12:42:35;29.90;;;26.85;;
60472;SDS011;46318;52.716;6.444;2023-04-28T12:45:01;31.40;;;28.30;;
60472;SDS011;46318;52.716;6.444;2023-04-28T12:47:27;29.30;;;26.20;;
60472;SDS011;46318;52.716;6.444;2023-04-28T12:49:53;30.35;;;27.35;;
60472;SDS011;46318;52.716;6.444;2023-04-28T12:52:19;31.35;;;28.02;;
60472;SDS011;46318;52.716;6.444;2023-04-28T12:54:46;30.08;;;27.00;;
60472;SDS011;46318;52.716;6.444;2023-04-28T12:57:15;31.85;;;28.67;;
60472;SDS011;46318;52.716;6.444;2023-04-28T12:59:42;30.67;;;27.58;;
60472;SDS011;46318;52.716;6.444;2023-04-28T13:02:11;30.02;;;27.08;;
60472;SDS011;46318;52.716;6.444;2023-04-28T13:04:38;30.70;;;27.58;;
60472;SDS011;46318;52.716;6.444;2023-04-28T13:07:07;32.17;;;28.85;;
60472;SDS011;46318;52.716;6.444;2023-04-28T13:09:33;31.92;;;28.75;;
60472;SDS011;46318;52.716;6.444;2023-04-28T13:11:59;31.52;;;28.52;;
60472;SDS011;46318;52.716;6.444;2023-04-28T13:14:27;32.35;;;29.33;;
60472;SDS011;46318;52.716;6.444;2023-04-28T13:16:53;33.30;;;30.05;;
60472;SDS011;46318;52.716;6.444;2023-04-28T13:19:19;34.95;;;31.42;;
60472;SDS011;46318;52.716;6.444;2023-04-28T13:21:45;34.58;;;31.13;;
60472;SDS011;46318;52.716;6.444;2023-04-28T13:24:14;34.55;;;31.05;;
60472;SDS011;46318;52.716;6.444;2023-04-28T13:26:40;33.92;;;30.63;;
60472;SDS011;46318;52.716;6.444;2023-04-28T13:29:08;36.55;;;33.03;;
60472;SDS011;46318;52.716;6.444;2023-04-28T13:31:35;38.70;;;34.60;;
60472;SDS011;46318;52.716;6.444;2023-04-28T13:34:01;34.85;;;31.52;;
60472;SDS011;46318;52.716;6.444;2023-04-28T13:36:28;35.42;;;31.77;;
60472;SDS011;46318;52.716;6.444;2023-04-28T13:38:54;37.10;;;33.40;;
60472;SDS011;46318;52.716;6.444;2023-04-28T13:41:20;34.60;;;31.33;;
60472;SDS011;46318;52.716;6.444;2023-04-28T13:43:46;33.47;;;30.08;;
60472;SDS011;46318;52.716;6.444;2023-04-28T13:46:12;36.45;;;32.83;;
60472;SDS011;46318;52.716;6.444;2023-04-28T13:48:38;34.08;;;30.95;;
60472;SDS011;46318;52.716;6.444;2023-04-28T13:51:05;61.00;;;36.92;;
60472;SDS011;46318;52.716;6.444;2023-04-28T13:53:32;36.17;;;32.30;;
60472;SDS011;46318;52.716;6.444;2023-04-28T13:58:32;34.40;;;31.00;;
60472;SDS011;46318;52.716;6.444;2023-04-28T14:00:58;34.22;;;30.95;;
60472;SDS011;46318;52.716;6.444;2023-04-28T14:03:24;34.10;;;30.77;;
60472;SDS011;46318;52.716;6.444;2023-04-28T14:05:52;34.65;;;31.30;;
60472;SDS011;46318;52.716;6.444;2023-04-28T14:08:20;33.22;;;30.15;;
60472;SDS011;46318;52.716;6.444;2023-04-28T14:10:48;34.55;;;31.15;;
60472;SDS011;46318;52.716;6.444;2023-04-28T14:13:15;34.58;;;31.27;;
60472;SDS011;46318;52.716;6.444;2023-04-28T14:15:41;31.55;;;28.45;;
60472;SDS011;46318;52.716;6.444;2023-04-28T14:18:09;34.03;;;30.75;;
60472;SDS011;46318;52.716;6.444;2023-04-28T14:20:36;32.42;;;29.42;;
60472;SDS011;46318;52.716;6.444;2023-04-28T14:23:02;31.38;;;28.48;;
60472;SDS011;46318;52.716;6.444;2023-04-28T14:25:28;32.38;;;29.17;;
60472;SDS011;46318;52.716;6.444;2023-04-28T14:27:54;31.38;;;28.33;;
60472;SDS011;46318;52.716;6.444;2023-04-28T14:30:20;31.00;;;27.80;;
60472;SDS011;46318;52.716;6.444;2023-04-28T14:32:47;30.67;;;27.45;;
60472;SDS011;46318;52.716;6.444;2023-04-28T14:35:13;30.17;;;26.98;;
60472;SDS011;46318;52.716;6.444;2023-04-28T14:37:40;29.98;;;27.13;;
60472;SDS011;46318;52.716;6.444;2023-04-28T14:40:06;28.25;;;25.55;;
60472;SDS011;46318;52.716;6.444;2023-04-28T14:42:33;26.98;;;24.42;;
60472;SDS011;46318;52.716;6.444;2023-04-28T14:45:08;30.05;;;27.20;;
60472;SDS011;46318;52.716;6.444;2023-04-28T14:47:38;28.50;;;25.58;;
60472;SDS011;46318;52.716;6.444;2023-04-28T14:50:05;27.42;;;24.92;;
60472;SDS011;46318;52.716;6.444;2023-04-28T14:52:32;30.15;;;27.25;;
60472;SDS011;46318;52.716;6.444;2023-04-28T14:54:58;28.92;;;25.98;;
60472;SDS011;46318;52.716;6.444;2023-04-28T14:57:25;27.52;;;24.92;;
60472;SDS011;46318;52.716;6.444;2023-04-28T14:59:52;25.15;;;22.75;;
60472;SDS011;46318;52.716;6.444;2023-04-28T15:02:19;23.02;;;20.92;;
60472;SDS011;46318;52.716;6.444;2023-04-28T15:07:16;18.02;;;16.33;;
60472;SDS011;46318;52.716;6.444;2023-04-28T15:09:44;18.08;;;16.35;;
60472;SDS011;46318;52.716;6.444;2023-04-28T15:12:10;16.65;;;15.15;;
60472;SDS011;46318;52.716;6.444;2023-04-28T15:14:36;17.35;;;15.73;;
60472;SDS011;46318;52.716;6.444;2023-04-28T15:17:02;17.67;;;16.00;;